Time;durP1;ratioP1;P1;durP2;ratioP2;P2;SDS_P1;SDS_P2;PMS_P1;PMS_P2;Temp;Humidity;BMP_temperature;BMP_pressure;BME280_temperature;BME280_humidity;BME280_pressure;Samples;Min_cycle;Max_cycle;Signal;HPM_P1;HPM_P2
2023/02/17 00:00:54;;;;;;;10.13;9.33;;;;;;;9.06;67.87;97567.94;5053009;28;20662;-74
2023/02/17 00:03:19;;;;;;;10.40;7.90;;;;;;;9.04;68.06;97564.72;5053822;28;20213;-75
2023/02/17 00:05:44;;;;;;;7.47;6.77;;;;;;;8.99;68.34;97569.72;5054125;28;20229;-75
2023/02/17 00:08:10;;;;;;;8.93;8.13;;;;;;;9.04;68.37;97571.75;5053777;28;20183;-75
2023/02/17 00:10:35;;;;;;;11.43;10.47;;;;;;;8.92;68.90;97568.09;5053573;28;20198;-74
2023/02/17 00:13:00;;;;;;;14.17;13.17;;;;;;;8.92;68.79;97562.88;5051788;28;20214;-75
2023/02/17 00:15:26;;;;;;;17.27;15.80;;;;;;;8.94;69.13;97566.09;5054045;28;20243;-74
2023/02/17 00:17:51;;;;;;;18.20;16.80;;;;;;;8.92;69.96;97568.91;5053709;28;20646;-74
2023/02/17 00:20:16;;;;;;;16.37;15.20;;;;;;;8.86;69.86;97569.69;5053705;28;20205;-74
2023/02/17 00:22:42;;;;;;;12.17;11.27;;;;;;;8.96;70.12;97562.28;5053724;28;20209;-75
2023/02/17 00:25:07;;;;;;;7.97;7.40;;;;;;;8.88;70.13;97561.66;5052611;28;20198;-74
2023/02/17 00:27:32;;;;;;;6.77;6.23;;;;;;;8.84;70.54;97556.03;5053901;28;20198;-74
2023/02/17 00:29:58;;;;;;;9.53;8.63;;;;;;;8.89;70.60;97555.44;5053093;28;20198;-75
2023/02/17 00:32:23;;;;;;;10.43;9.53;;;;;;;8.83;70.89;97554.41;5051491;28;20225;-75
2023/02/17 00:34:51;;;;;;;12.57;11.47;;;;;;;8.76;71.13;97556.19;5053815;28;20307;-75
2023/02/17 00:37:16;;;;;;;14.33;13.47;;;;;;;8.73;71.38;97552.16;5051934;28;20194;-75
2023/02/17 00:39:41;;;;;;;14.67;13.77;;;;;;;8.85;71.02;97549.00;5053022;28;20249;-75
2023/02/17 00:42:07;;;;;;;14.73;13.70;;;;;;;8.79;71.05;97553.19;5053496;28;20225;-75
2023/02/17 00:44:33;;;;;;;12.07;10.97;;;;;;;8.80;71.32;97552.19;5053376;28;20231;-74
2023/02/17 00:46:58;;;;;;;12.07;11.17;;;;;;;8.80;71.61;97549.59;5052225;28;20657;-75
2023/02/17 00:49:25;;;;;;;10.97;9.83;;;;;;;8.86;71.38;97554.00;5053076;28;20182;-75
2023/02/17 00:51:51;;;;;;;10.63;9.93;;;;;;;8.79;71.14;97552.38;5053346;28;20209;-76
2023/02/17 00:54:18;;;;;;;11.53;10.63;;;;;;;8.73;71.53;97548.75;5053260;28;20642;-76
2023/02/17 00:56:43;;;;;;;9.23;8.53;;;;;;;8.78;71.61;97551.56;5051976;28;20692;-74
2023/02/17 00:59:09;;;;;;;8.23;7.43;;;;;;;8.80;71.85;97546.16;5053450;28;20190;-75
2023/02/17 01:01:34;;;;;;;9.70;6.60;;;;;;;8.85;71.71;97557.63;5052075;28;20252;-75
2023/02/17 01:04:00;;;;;;;7.03;6.00;;;;;;;8.74;71.89;97545.13;5053273;28;20295;-75
2023/02/17 01:06:29;;;;;;;6.47;4.67;;;;;;;8.74;72.14;97545.94;5052722;28;20615;-75
2023/02/17 01:08:55;;;;;;;5.37;4.80;;;;;;;8.72;72.72;97550.56;5052115;28;20278;-75
2023/02/17 01:11:24;;;;;;;5.90;5.33;;;;;;;8.66;72.99;97550.53;5052703;28;20596;-74
2023/02/17 01:13:50;;;;;;;5.37;4.67;;;;;;;8.51;73.85;97544.63;5050365;28;20295;-74
2023/02/17 01:16:17;;;;;;;5.80;5.20;;;;;;;8.60;73.95;97541.66;5052742;28;20472;-75
2023/02/17 01:18:42;;;;;;;6.90;6.30;;;;;;;8.62;73.86;97550.13;5052362;28;20217;-77
2023/02/17 01:21:18;;;;;;;7.57;6.90;;;;;;;8.59;73.76;97534.81;5051519;28;20229;-75
2023/02/17 01:23:43;;;;;;;8.23;7.60;;;;;;;8.59;73.81;97534.00;5052674;28;20182;-75
2023/02/17 01:26:17;;;;;;;9.13;8.20;;;;;;;8.68;74.24;97528.44;5052666;28;20270;-75
2023/02/17 01:28:42;;;;;;;10.10;9.30;;;;;;;8.70;74.14;97538.66;5052866;28;20185;-75
2023/02/17 01:31:10;;;;;;;9.87;9.07;;;;;;;8.74;73.73;97530.25;5051168;28;20194;-75
2023/02/17 01:33:36;;;;;;;11.10;9.37;;;;;;;8.77;73.78;97527.25;5051480;28;20659;-74
2023/02/17 01:36:02;;;;;;;10.33;9.33;;;;;;;8.77;73.82;97522.00;5051155;28;20205;-78
2023/02/17 01:38:28;;;;;;;9.87;8.97;;;;;;;8.82;73.64;97520.63;5051682;28;20193;-74
2023/02/17 01:40:54;;;;;;;10.07;9.27;;;;;;;8.70;73.75;97521.19;5052658;28;20545;-75
2023/02/17 01:43:20;;;;;;;9.00;8.27;;;;;;;8.73;73.90;97520.81;5052593;28;20269;-75
2023/02/17 01:45:50;;;;;;;9.50;8.57;;;;;;;8.74;74.09;97524.22;5052828;28;20618;-74
2023/02/17 01:48:20;;;;;;;9.53;8.70;;;;;;;8.63;74.59;97514.34;5052754;28;20178;-75
2023/02/17 01:50:59;;;;;;;9.37;8.63;;;;;;;8.66;74.65;97506.91;5052331;28;20186;-77
2023/02/17 01:53:32;;;;;;;9.03;8.17;;;;;;;8.72;73.93;97507.94;5052616;28;20680;-75
2023/02/17 01:55:57;;;;;;;10.00;9.00;;;;;;;8.69;74.37;97511.72;5052748;28;20235;-78
2023/02/17 01:58:24;;;;;;;10.00;9.20;;;;;;;8.72;74.27;97506.13;5052869;28;20190;-74
2023/02/17 02:00:51;;;;;;;9.73;8.90;;;;;;;8.57;75.21;97504.66;5052407;28;20245;-75
2023/02/17 02:03:17;;;;;;;8.60;7.90;;;;;;;8.53;75.43;97508.66;5052069;28;20190;-76
2023/02/17 02:05:43;;;;;;;8.67;7.93;;;;;;;8.49;75.32;97502.22;5052823;28;20672;-75
2023/02/17 02:08:10;;;;;;;7.57;7.17;;;;;;;8.57;75.12;97497.63;5051198;28;20277;-74
2023/02/17 02:10:35;;;;;;;9.77;8.87;;;;;;;8.58;75.22;97496.63;5052294;28;20194;-75
2023/02/17 02:13:01;;;;;;;10.00;9.03;;;;;;;8.69;74.71;97496.03;5050344;28;20225;-75
2023/02/17 02:15:34;;;;;;;11.77;8.83;;;;;;;8.76;74.09;97494.25;5052043;28;20749;-75
2023/02/17 02:18:09;;;;;;;10.37;9.57;;;;;;;8.68;74.17;97491.84;5052527;28;20182;-74
2023/02/17 02:20:37;;;;;;;10.63;9.70;;;;;;;8.73;74.19;97488.63;5051313;28;20189;-75
2023/02/17 02:23:37;;;;;;;9.70;8.80;;;;;;;8.61;74.51;97493.63;5052010;28;20198;-74
2023/02/17 02:26:37;;;;;;;10.77;10.03;;;;;;;8.63;74.62;97494.25;5048269;28;20190;-74
2023/02/17 02:29:37;;;;;;;11.40;10.47;;;;;;;8.61;74.49;97492.81;5052021;28;20269;-75
2023/02/17 02:32:34;;;;;;;11.60;10.70;;;;;;;8.61;74.56;97492.81;5054919;28;20210;-75
2023/02/17 02:35:04;;;;;;;10.73;9.93;;;;;;;8.54;75.32;97490.19;5052266;28;20230;-74
2023/02/17 02:37:38;;;;;;;10.23;9.30;;;;;;;8.49;75.78;97478.72;5054817;28;20198;-76
2023/02/17 02:40:07;;;;;;;10.23;9.53;;;;;;;8.50;75.59;97481.13;5050984;28;20193;-74
2023/02/17 02:42:33;;;;;;;9.77;9.00;;;;;;;8.61;74.94;97480.56;5055664;28;20658;-75
2023/02/17 02:44:59;;;;;;;9.83;9.13;;;;;;;8.60;74.92;97486.78;5055898;28;20685;-75
2023/02/17 02:47:44;;;;;;;8.83;8.03;;;;;;;8.56;75.10;97474.31;5055330;28;20190;-74
2023/02/17 02:50:31;;;;;;;12.40;11.60;;;;;;;8.62;74.75;97482.19;5056179;28;20637;-75
2023/02/17 02:53:35;;;;;;;11.57;10.67;;;;;;;8.74;74.23;97478.00;5044416;28;20206;-75
2023/02/17 02:56:19;;;;;;;12.63;11.57;;;;;;;8.54;74.42;97478.91;5056171;28;20276;-75
2023/02/17 02:58:51;;;;;;;11.90;10.63;;;;;;;8.62;74.55;97474.34;5048887;28;20193;-74
2023/02/17 03:01:25;;;;;;;11.90;10.97;;;;;;;8.54;74.75;97476.31;5055824;28;20194;-76
2023/02/17 03:04:13;;;;;;;12.03;11.03;;;;;;;8.72;74.23;97466.13;5048740;28;20543;-75
2023/02/17 03:06:47;;;;;;;13.10;12.27;;;;;;;8.72;74.13;97469.53;5055873;28;20197;-76
2023/02/17 03:09:23;;;;;;;13.30;12.37;;;;;;;8.83;73.77;97460.31;5055760;28;20591;-74
2023/02/17 03:11:49;;;;;;;14.67;13.50;;;;;;;8.74;74.01;97458.88;5053658;28;20251;-75
2023/02/17 03:14:18;;;;;;;12.73;11.83;;;;;;;8.62;74.99;97466.50;5055188;28;20186;-75
2023/02/17 03:16:45;;;;;;;10.70;9.83;;;;;;;8.68;75.47;97455.25;5055618;28;20277;-74
2023/02/17 03:19:12;;;;;;;9.53;8.63;;;;;;;8.64;75.08;97450.59;5055712;28;20566;-74
2023/02/17 03:21:42;;;;;;;8.93;7.93;;;;;;;8.62;75.92;97452.63;5055182;28;20199;-74
2023/02/17 03:24:08;;;;;;;6.80;6.13;;;;;;;8.72;75.42;97445.22;5055500;28;20320;-74
2023/02/17 03:26:34;;;;;;;6.53;5.43;;;;;;;8.65;75.17;97450.41;5053989;28;20651;-75
2023/02/17 03:28:59;;;;;;;5.77;5.10;;;;;;;8.49;76.12;97442.94;5055498;28;20533;-75
2023/02/17 03:31:25;;;;;;;5.67;5.10;;;;;;;8.65;76.21;97441.78;5062164;28;20197;-74
2023/02/17 03:33:50;;;;;;;5.77;5.27;;;;;;;8.59;76.59;97443.34;5054694;28;20241;-75
2023/02/17 03:36:16;;;;;;;7.80;5.27;;;;;;;8.62;76.28;97452.63;5054989;28;20198;-75
2023/02/17 03:38:41;;;;;;;7.73;5.27;;;;;;;8.55;76.92;97457.81;5053071;28;20244;-75
2023/02/17 03:41:07;;;;;;;5.57;5.10;;;;;;;8.66;76.48;97452.03;5055260;28;20187;-76
2023/02/17 03:43:32;;;;;;;7.00;5.47;;;;;;;8.65;76.82;97460.06;5053883;28;20198;-74
2023/02/17 03:45:57;;;;;;;6.70;6.00;;;;;;;8.73;76.10;97454.66;5055364;28;20197;-78
2023/02/17 03:48:23;;;;;;;5.63;5.10;;;;;;;8.73;76.26;97458.09;5055014;28;20221;-74
2023/02/17 03:50:48;;;;;;;9.50;5.63;;;;;;;8.61;76.51;97456.25;5052838;28;20316;-74
2023/02/17 03:53:13;;;;;;;6.00;5.40;;;;;;;8.69;76.21;97459.47;5054770;28;20218;-76
2023/02/17 03:55:39;;;;;;;7.43;5.60;;;;;;;8.62;76.92;97456.03;5053381;28;20197;-74
2023/02/17 03:58:04;;;;;;;6.37;5.77;;;;;;;8.63;76.72;97455.06;5054749;28;20186;-75
2023/02/17 04:00:30;;;;;;;5.93;5.03;;;;;;;8.66;76.95;97462.47;5054517;28;20190;-74
2023/02/17 04:02:58;;;;;;;7.10;5.53;;;;;;;8.65;76.67;97460.88;5054591;28;20277;-74
2023/02/17 04:05:23;;;;;;;6.00;5.60;;;;;;;8.65;77.05;97463.47;5054218;28;20655;-75
2023/02/17 04:07:49;;;;;;;7.70;6.90;;;;;;;8.65;77.15;97457.44;5053155;28;20202;-74
2023/02/17 04:10:15;;;;;;;8.17;7.57;;;;;;;8.41;78.03;97455.38;5053832;28;20189;-75
2023/02/17 04:12:40;;;;;;;8.87;8.17;;;;;;;8.50;77.76;97454.19;5052423;28;20213;-75
2023/02/17 04:15:06;;;;;;;10.53;9.07;;;;;;;8.55;77.89;97455.22;5054813;28;20197;-75
2023/02/17 04:17:31;;;;;;;11.30;10.07;;;;;;;8.54;77.42;97463.25;5053792;28;20205;-74
2023/02/17 04:19:57;;;;;;;9.67;8.97;;;;;;;8.52;77.97;97473.91;5053042;28;20190;-75
2023/02/17 04:22:22;;;;;;;10.60;9.63;;;;;;;8.59;77.67;97466.06;5053795;28;20212;-74
2023/02/17 04:24:48;;;;;;;10.13;9.33;;;;;;;8.56;78.10;97469.09;5054267;28;20198;-75
2023/02/17 04:27:13;;;;;;;14.47;9.73;;;;;;;8.74;76.91;97470.16;5054270;28;20190;-75
2023/02/17 04:29:39;;;;;;;11.40;10.33;;;;;;;8.60;77.34;97473.72;5052900;28;20651;-74
2023/02/17 04:32:04;;;;;;;10.53;9.63;;;;;;;8.52;78.31;97471.31;5053929;28;20210;-74
2023/02/17 04:34:29;;;;;;;11.03;10.23;;;;;;;8.56;78.02;97474.31;5053623;28;20575;-76
2023/02/17 04:36:55;;;;;;;10.80;10.00;;;;;;;8.64;77.82;97468.91;5052719;28;20201;-76
2023/02/17 04:39:20;;;;;;;10.20;9.40;;;;;;;8.49;78.55;97463.03;5052601;28;20548;-75
2023/02/17 04:41:46;;;;;;;10.83;9.93;;;;;;;8.55;78.73;97462.25;5052451;28;20190;-75
2023/02/17 04:44:11;;;;;;;10.97;9.90;;;;;;;8.60;78.28;97455.44;5053772;28;20193;-74
2023/02/17 04:46:36;;;;;;;10.40;9.30;;;;;;;8.53;78.58;97454.59;5053584;28;20190;-75
2023/02/17 04:49:02;;;;;;;10.23;9.43;;;;;;;8.52;79.39;97452.22;5053699;28;20206;-75
2023/02/17 04:51:27;;;;;;;7.77;7.17;;;;;;;8.62;78.71;97448.22;5054081;28;20270;-74
2023/02/17 04:53:53;;;;;;;10.57;8.60;;;;;;;8.62;78.82;97448.22;5053481;28;20213;-75
2023/02/17 04:56:18;;;;;;;8.03;6.63;;;;;;;8.62;78.82;97440.38;5053758;28;20276;-74
2023/02/17 04:58:44;;;;;;;7.23;6.07;;;;;;;8.65;79.11;97428.69;5052456;28;20277;-74
2023/02/17 05:01:09;;;;;;;5.80;5.10;;;;;;;8.57;79.41;97421.88;5053359;28;20190;-75
2023/02/17 05:03:35;;;;;;;5.77;5.20;;;;;;;8.57;79.73;97429.72;5053445;28;20186;-75
2023/02/17 05:06:00;;;;;;;7.43;6.37;;;;;;;8.57;80.12;97434.94;5053348;28;20194;-75
2023/02/17 05:08:25;;;;;;;11.20;10.40;;;;;;;8.53;80.56;97430.28;5053235;28;20653;-75
2023/02/17 05:10:51;;;;;;;15.83;14.73;;;;;;;8.54;80.80;97426.66;5049799;28;20218;-74
2023/02/17 05:13:17;;;;;;;13.23;12.17;;;;;;;8.52;81.49;97432.13;5046708;28;20659;-75
2023/02/17 05:15:43;;;;;;;13.20;12.27;;;;;;;8.48;82.17;97436.09;5052961;28;20529;-75
2023/02/17 05:18:09;;;;;;;6.37;5.87;;;;;;;8.45;82.81;97430.47;5053443;28;20206;-75
2023/02/17 05:20:34;;;;;;;6.30;5.70;;;;;;;8.38;84.12;97427.84;5051203;28;20207;-75
2023/02/17 05:23:00;;;;;;;6.47;5.80;;;;;;;8.40;84.52;97430.25;5053519;28;20255;-74
2023/02/17 05:25:25;;;;;;;8.43;5.77;;;;;;;8.31;85.31;97422.59;5053034;28;20194;-75
2023/02/17 05:27:50;;;;;;;7.00;4.97;;;;;;;8.36;85.33;97422.00;5053385;28;20193;-74
2023/02/17 05:30:16;;;;;;;6.17;5.63;;;;;;;8.41;85.54;97424.03;5051727;28;20192;-75
2023/02/17 05:32:41;;;;;;;6.17;5.60;;;;;;;8.36;86.24;97427.22;5052716;28;20607;-76
2023/02/17 05:35:07;;;;;;;8.70;5.70;;;;;;;8.35;86.85;97430.84;5053102;28;20198;-74
2023/02/17 05:37:32;;;;;;;6.87;5.40;;;;;;;8.44;86.62;97434.09;5051374;28;20246;-74
2023/02/17 05:39:58;;;;;;;5.27;4.77;;;;;;;8.47;86.71;97431.88;5051978;28;20186;-74
2023/02/17 05:42:27;;;;;;;5.83;5.30;;;;;;;8.53;87.31;97432.88;5053008;28;20244;-74
2023/02/17 05:44:55;;;;;;;7.67;5.03;;;;;;;8.56;87.35;97435.94;5052934;28;20225;-75
2023/02/17 05:47:22;;;;;;;8.57;5.40;;;;;;;8.53;87.55;97433.69;5052849;28;20613;-74
2023/02/17 05:49:47;;;;;;;6.67;5.47;;;;;;;8.58;87.54;97441.75;5054308;28;20201;-74
2023/02/17 05:52:12;;;;;;;5.83;4.93;;;;;;;8.62;87.52;97445.59;5052923;28;20213;-75
2023/02/17 05:54:38;;;;;;;5.70;5.20;;;;;;;8.66;87.61;97446.81;5052748;28;20615;-74
2023/02/17 05:57:03;;;;;;;7.63;5.80;;;;;;;8.72;87.51;97450.44;5052921;28;20189;-74
2023/02/17 05:59:29;;;;;;;7.03;5.47;;;;;;;8.66;88.27;97446.00;5051350;28;20197;-74
2023/02/17 06:01:54;;;;;;;9.23;5.13;;;;;;;8.70;87.89;97455.03;5051441;28;20190;-74
2023/02/17 06:04:19;;;;;;;7.27;5.10;;;;;;;8.78;87.93;97454.88;5052496;28;20284;-74
2023/02/17 06:06:45;;;;;;;6.53;5.17;;;;;;;8.75;88.45;97461.28;5051665;28;20194;-75
2023/02/17 06:09:10;;;;;;;6.20;5.70;;;;;;;8.75;88.20;97456.06;5052305;28;20201;-76
2023/02/17 06:11:36;;;;;;;6.37;5.47;;;;;;;8.83;88.01;97465.53;5050754;28;20182;-74
2023/02/17 06:14:01;;;;;;;6.43;5.63;;;;;;;8.90;88.51;97465.56;5052546;28;20218;-75
2023/02/17 06:16:27;;;;;;;8.87;6.03;;;;;;;8.92;88.26;97471.38;5052271;28;20566;-74
2023/02/17 06:18:52;;;;;;;8.87;6.20;;;;;;;8.89;88.91;97469.16;5052680;28;20194;-74
2023/02/17 06:21:18;;;;;;;10.10;6.40;;;;;;;8.91;89.47;97469.78;5052646;28;20193;-75
2023/02/17 06:23:43;;;;;;;7.93;6.80;;;;;;;8.89;89.49;97469.97;5052598;28;20220;-74
2023/02/17 06:26:08;;;;;;;8.17;7.40;;;;;;;8.88;89.86;97478.81;5052202;28;20685;-74
2023/02/17 06:28:34;;;;;;;8.83;7.93;;;;;;;9.00;89.75;97485.06;5052436;28;20190;-74
2023/02/17 06:30:59;;;;;;;9.27;7.70;;;;;;;8.95;90.36;97484.88;5051953;28;20194;-75
2023/02/17 06:33:25;;;;;;;9.10;8.30;;;;;;;9.07;89.46;97487.69;5050542;28;20229;-75
2023/02/17 06:35:51;;;;;;;8.90;8.13;;;;;;;9.07;89.92;97483.28;5052384;28;20182;-75
2023/02/17 06:38:17;;;;;;;8.33;7.53;;;;;;;9.10;90.25;97489.91;5051358;28;20217;-75
2023/02/17 06:40:43;;;;;;;8.57;7.70;;;;;;;9.15;89.55;97490.91;5052356;28;20200;-74
2023/02/17 06:43:08;;;;;;;9.57;8.67;;;;;;;9.17;90.16;97501.19;5052136;28;20221;-75
2023/02/17 06:45:34;;;;;;;9.67;8.77;;;;;;;9.11;89.84;97494.94;5050797;28;20229;-75
2023/02/17 06:47:59;;;;;;;9.60;8.80;;;;;;;9.18;90.17;97487.91;5051934;28;20285;-75
2023/02/17 06:50:25;;;;;;;9.13;8.33;;;;;;;9.23;90.32;97495.16;5052585;28;20229;-75
2023/02/17 06:52:50;;;;;;;8.73;8.13;;;;;;;9.30;89.72;97495.16;5052066;28;20213;-74
2023/02/17 06:55:15;;;;;;;9.47;8.77;;;;;;;9.23;90.53;97494.34;5052111;28;20244;-75
2023/02/17 06:57:41;;;;;;;11.07;10.03;;;;;;;9.30;90.35;97498.59;5051011;28;20221;-74
2023/02/17 07:00:07;;;;;;;10.37;9.43;;;;;;;9.47;89.03;97496.38;5063881;28;20189;-74
2023/02/17 07:02:32;;;;;;;10.00;8.93;;;;;;;9.39;88.86;97497.38;5072173;28;20534;-74
2023/02/17 07:04:58;;;;;;;8.67;8.07;;;;;;;9.39;89.45;97493.94;5072448;28;20588;-75
2023/02/17 07:07:23;;;;;;;10.20;9.30;;;;;;;9.47;89.44;97504.22;5067351;28;20190;-73
2023/02/17 07:09:48;;;;;;;8.10;7.40;;;;;;;9.47;89.07;97506.84;5050133;28;20202;-74
2023/02/17 07:12:14;;;;;;;7.53;6.83;;;;;;;9.62;88.79;97504.81;5048954;28;20283;-74
2023/02/17 07:14:39;;;;;;;6.93;6.33;;;;;;;9.44;88.97;97512.47;5051458;28;20198;-76
2023/02/17 07:17:04;;;;;;;6.43;5.67;;;;;;;9.48;88.85;97511.03;5050664;28;20635;-74
2023/02/17 07:19:30;;;;;;;8.03;7.23;;;;;;;9.39;89.70;97513.06;5055394;28;20194;-74
2023/02/17 07:21:55;;;;;;;6.33;5.83;;;;;;;9.38;90.37;97519.31;5055680;28;20190;-74
2023/02/17 07:24:21;;;;;;;6.70;6.10;;;;;;;9.55;88.61;97515.28;5055470;28;20500;-74
2023/02/17 07:26:46;;;;;;;7.70;6.97;;;;;;;9.65;88.24;97514.88;5055432;28;20555;-78
2023/02/17 07:29:11;;;;;;;6.73;5.87;;;;;;;9.55;88.87;97522.31;5055958;28;20197;-74
2023/02/17 07:31:37;;;;;;;7.00;6.43;;;;;;;9.61;88.46;97524.13;5055081;28;20285;-74
2023/02/17 07:34:03;;;;;;;6.13;5.53;;;;;;;9.72;88.25;97530.56;5055053;28;20240;-74
2023/02/17 07:36:29;;;;;;;6.60;6.00;;;;;;;9.72;87.78;97526.16;5036244;28;20194;-74
2023/02/17 07:38:55;;;;;;;5.73;5.33;;;;;;;9.57;89.41;97531.59;5054104;28;20528;-74
2023/02/17 07:41:23;;;;;;;5.07;4.67;;;;;;;9.73;88.46;97526.94;5055670;28;20197;-74
2023/02/17 07:43:53;;;;;;;5.57;5.07;;;;;;;9.80;88.24;97519.91;5055423;28;20289;-74
2023/02/17 07:46:19;;;;;;;5.17;4.77;;;;;;;9.98;87.77;97520.88;5055524;28;20194;-74
2023/02/17 07:48:45;;;;;;;9.17;5.00;;;;;;;9.92;87.74;97513.00;5054652;28;20198;-75
2023/02/17 07:51:13;;;;;;;7.07;4.80;;;;;;;9.94;88.48;97516.25;5054712;28;20210;-74
2023/02/17 07:53:39;;;;;;;5.57;4.67;;;;;;;9.92;88.80;97524.31;5054639;28;20226;-74
2023/02/17 07:56:07;;;;;;;4.77;4.33;;;;;;;10.13;87.97;97525.09;5054968;28;20281;-74
2023/02/17 07:58:33;;;;;;;25.60;23.93;;;;;;;10.92;99.56;97530.06;5037609;28;20189;-72
2023/02/17 08:01:11;;;;;;;8.03;7.47;;;;;;;10.90;87.05;97530.25;5053680;28;20666;-73
2023/02/17 08:03:37;;;;;;;5.97;5.40;;;;;;;10.48;88.31;97530.88;5054763;28;20225;-72
2023/02/17 08:06:02;;;;;;;7.20;6.57;;;;;;;10.36;88.30;97541.19;5054374;28;20234;-76
2023/02/17 08:13:59;;;;;;;6.90;6.27;;;;;;;9.98;91.68;97538.38;5053527;28;20256;-73
2023/02/17 08:16:28;;;;;;;7.40;6.70;;;;;;;9.95;92.67;97533.56;5054292;28;20229;-72
2023/02/17 08:18:54;;;;;;;5.50;4.97;;;;;;;9.78;93.92;97540.25;5057331;28;20192;-72
2023/02/17 08:21:21;;;;;;;5.10;4.70;;;;;;;9.94;93.93;97526.72;5062552;28;20282;-72
2023/02/17 08:23:46;;;;;;;6.60;4.67;;;;;;;10.07;93.66;97531.94;5054314;28;20198;-74
2023/02/17 08:26:12;;;;;;;5.47;4.40;;;;;;;10.51;91.81;97546.16;5047258;28;20209;-76
2023/02/17 08:28:37;;;;;;;9.10;5.40;;;;;;;10.70;90.37;97530.34;5052514;28;20204;-73
2023/02/17 08:31:02;;;;;;;8.00;7.40;;;;;;;10.88;89.46;97534.91;5054564;28;20556;-73
2023/02/17 08:33:28;;;;;;;7.23;6.63;;;;;;;10.87;89.45;97541.16;5065233;28;20244;-73
2023/02/17 08:35:53;;;;;;;7.40;6.90;;;;;;;10.90;89.64;97530.25;5055921;28;20194;-74
2023/02/17 08:38:18;;;;;;;7.77;7.17;;;;;;;11.06;89.01;97539.44;5046821;28;20198;-73
2023/02/17 08:40:44;;;;;;;8.37;7.67;;;;;;;11.25;88.41;97528.84;5044920;28;20228;-77
2023/02/17 08:43:09;;;;;;;8.83;7.87;;;;;;;10.98;89.68;97535.25;5053581;28;20208;-78
2023/02/17 08:45:35;;;;;;;7.63;6.93;;;;;;;10.89;91.04;97535.72;5053048;28;20504;-73
2023/02/17 08:48:04;;;;;;;5.07;4.60;;;;;;;10.83;91.52;97539.97;5053724;28;20634;-73
2023/02/17 08:50:31;;;;;;;6.90;6.40;;;;;;;10.85;92.17;97535.34;5051872;28;20721;-72
2023/02/17 08:52:56;;;;;;;7.10;6.50;;;;;;;10.85;92.38;97543.19;5054056;28;20292;-73
2023/02/17 08:55:22;;;;;;;6.93;6.37;;;;;;;10.77;93.12;97535.56;5055782;28;20605;-74
2023/02/17 08:57:48;;;;;;;6.30;5.90;;;;;;;11.05;91.96;97535.22;5053469;28;20583;-73
2023/02/17 09:00:15;;;;;;;5.97;5.53;;;;;;;11.27;90.75;97539.13;5053752;28;20185;-73
2023/02/17 09:02:43;;;;;;;4.80;4.40;;;;;;;11.14;91.13;97529.53;5052677;28;20247;-73
2023/02/17 09:05:13;;;;;;;5.97;4.67;;;;;;;11.07;92.30;97535.81;5054004;28;20202;-73
2023/02/17 09:07:39;;;;;;;6.43;5.93;;;;;;;11.03;92.61;97540.69;5049321;28;20205;-74
2023/02/17 09:10:07;;;;;;;6.03;5.63;;;;;;;10.92;93.73;97537.94;5050582;28;20186;-74
2023/02/17 09:12:32;;;;;;;5.67;4.87;;;;;;;10.76;95.67;97534.75;5051747;28;20604;-73
2023/02/17 09:14:57;;;;;;;6.20;5.70;;;;;;;10.63;95.92;97529.59;5053423;28;20194;-73
2023/02/17 09:17:24;;;;;;;5.10;4.70;;;;;;;10.62;97.38;97524.53;5053422;28;20706;-73
2023/02/17 09:19:49;;;;;;;6.20;5.50;;;;;;;10.56;97.65;97520.13;5052907;28;20198;-73
2023/02/17 09:22:16;;;;;;;6.73;6.23;;;;;;;10.64;97.19;97519.91;5052125;28;20777;-73
2023/02/17 09:24:42;;;;;;;8.57;8.00;;;;;;;10.57;97.49;97529.59;5052266;28;20277;-73
2023/02/17 09:27:07;;;;;;;9.97;9.07;;;;;;;10.58;97.82;97524.16;5051856;28;20190;-72
2023/02/17 09:29:33;;;;;;;15.97;14.87;;;;;;;10.41;99.37;97533.50;5052274;28;20189;-73
2023/02/17 09:31:58;;;;;;;18.43;17.20;;;;;;;10.47;99.16;97524.81;5053100;28;20221;-73
2023/02/17 09:34:23;;;;;;;17.50;16.30;;;;;;;10.42;99.84;97533.28;5052500;28;20716;-73
2023/02/17 09:36:49;;;;;;;12.57;11.73;;;;;;;10.41;100.00;97538.75;5052354;28;20202;-73
2023/02/17 09:39:15;;;;;;;9.23;8.63;;;;;;;10.47;100.00;97537.13;5053257;28;20193;-73
2023/02/17 09:41:50;;;;;;;9.67;8.67;;;;;;;10.53;100.00;97544.16;5052397;28;20181;-73
2023/02/17 09:44:24;;;;;;;9.43;8.73;;;;;;;10.54;100.00;97541.31;5053256;28;20205;-73
2023/02/17 09:47:16;;;;;;;8.33;7.73;;;;;;;10.61;100.00;97555.19;5053246;28;20189;-74
2023/02/17 09:49:46;;;;;;;9.67;9.07;;;;;;;10.58;100.00;97560.88;5040337;28;20194;-74
2023/02/17 09:52:21;;;;;;;9.40;8.60;;;;;;;10.54;100.00;97570.13;5053364;28;20206;-74
2023/02/17 09:55:02;;;;;;;8.97;8.47;;;;;;;10.64;100.00;97569.72;5053055;28;20185;-73
2023/02/17 09:57:34;;;;;;;8.03;7.53;;;;;;;10.62;100.00;97561.25;5038420;28;20180;-73
2023/02/17 10:00:08;;;;;;;8.93;8.30;;;;;;;10.55;100.00;97571.75;5052868;28;20580;-74
2023/02/17 10:02:47;;;;;;;10.83;9.93;;;;;;;10.55;100.00;97573.56;5052724;28;20186;-73
2023/02/17 10:05:16;;;;;;;10.43;9.57;;;;;;;10.63;100.00;97579.41;5055663;28;20182;-73
2023/02/17 10:07:52;;;;;;;10.80;10.20;;;;;;;10.71;100.00;97583.59;5051663;28;20236;-73
2023/02/17 10:10:22;;;;;;;10.47;9.67;;;;;;;10.99;99.46;97578.81;5050772;28;20193;-73
2023/02/17 10:12:53;;;;;;;8.27;7.47;;;;;;;11.45;96.68;97577.75;5051886;28;20681;-73
2023/02/17 10:15:26;;;;;;;6.53;5.97;;;;;;;11.66;94.97;97569.53;5052606;28;20190;-74
2023/02/17 10:18:15;;;;;;;5.90;5.27;;;;;;;11.68;94.47;97575.38;5052670;28;20190;-76
2023/02/17 10:21:06;;;;;;;5.57;5.17;;;;;;;11.36;96.41;97565.91;5039186;28;20311;-74
2023/02/17 10:23:32;;;;;;;5.47;5.03;;;;;;;11.28;97.49;97572.22;5052687;28;20197;-73
2023/02/17 10:26:07;;;;;;;5.43;5.13;;;;;;;11.27;98.37;97568.78;5052728;28;20194;-75
2023/02/17 10:28:59;;;;;;;4.73;4.33;;;;;;;11.83;95.12;97562.75;5051241;28;20187;-73
2023/02/17 10:31:39;;;;;;;5.90;5.60;;;;;;;11.66;96.36;97569.53;5052558;28;20201;-74
2023/02/17 10:34:14;;;;;;;6.00;5.67;;;;;;;11.95;94.96;97571.53;5052270;28;20230;-73
2023/02/17 10:36:50;;;;;;;4.47;4.27;;;;;;;12.37;92.46;97564.66;5051219;28;20729;-73
2023/02/17 10:39:40;;;;;;;6.03;5.73;;;;;;;12.60;90.95;97565.81;5051461;28;20328;-73
2023/02/17 10:42:24;;;;;;;8.43;7.93;;;;;;;13.01;88.33;97559.88;5052330;28;20193;-74
2023/02/17 10:44:52;;;;;;;42.63;40.30;;;;;;;12.93;87.87;97560.97;5052232;28;20221;-74
2023/02/17 10:47:20;;;;;;;79.23;75.00;;;;;;;12.90;87.92;97541.19;5051761;28;20190;-73
2023/02/17 10:49:50;;;;;;;54.63;51.43;;;;;;;12.78;88.60;97545.59;5054512;28;20201;-73
2023/02/17 10:52:22;;;;;;;15.20;14.33;;;;;;;12.69;89.48;97540.84;5053715;28;20222;-74
2023/02/17 10:54:59;;;;;;;15.53;14.60;;;;;;;12.92;88.77;97535.72;5056388;28;20190;-74
2023/02/17 10:57:31;;;;;;;23.40;22.10;;;;;;;12.77;89.01;97522.94;5056178;28;20220;-73
2023/02/17 10:59:57;;;;;;;14.93;13.93;;;;;;;12.67;89.90;97541.06;5055869;28;20336;-75
2023/02/17 11:02:54;;;;;;;16.27;15.33;;;;;;;12.82;89.28;97530.16;5055609;28;20194;-73
2023/02/17 11:05:27;;;;;;;5.73;5.33;;;;;;;12.74;90.03;97530.47;5012895;28;20640;-73
2023/02/17 11:08:20;;;;;;;6.27;5.97;;;;;;;12.70;90.17;97538.00;5050064;28;20239;-77
2023/02/17 11:10:45;;;;;;;6.43;6.03;;;;;;;12.78;90.32;97536.88;5036900;28;20194;-73
2023/02/17 11:14:04;;;;;;;7.57;7.17;;;;;;;12.46;91.87;97528.38;5055462;28;20343;-72
2023/02/17 11:16:40;;;;;;;15.50;14.33;;;;;;;12.46;92.76;97526.56;5019832;28;20199;-72
2023/02/17 11:19:17;;;;;;;19.77;18.67;;;;;;;12.70;91.69;97530.13;5055050;28;20600;-73
2023/02/17 11:21:43;;;;;;;12.10;11.43;;;;;;;12.87;90.82;97519.78;5056762;28;20541;-73
2023/02/17 11:24:11;;;;;;;6.17;5.77;;;;;;;13.21;88.85;97520.94;5055588;28;20262;-73
2023/02/17 11:26:37;;;;;;;8.80;8.40;;;;;;;13.12;89.02;97517.03;5053755;28;20281;-73
2023/02/17 11:29:14;;;;;;;18.90;17.70;;;;;;;13.21;88.46;97518.31;5055292;28;20276;-73
2023/02/17 11:31:39;;;;;;;20.47;19.37;;;;;;;13.23;88.45;97517.06;5054337;28;20269;-73
2023/02/17 11:34:20;;;;;;;31.33;29.67;;;;;;;13.53;87.45;97508.31;5054697;28;20229;-72
2023/02/17 11:36:57;;;;;;;43.20;40.93;;;;;;;13.51;87.13;97500.63;5053070;28;20209;-76
2023/02/17 11:39:23;;;;;;;47.57;45.10;;;;;;;13.61;87.36;97500.88;5055312;28;20214;-74
2023/02/17 11:41:48;;;;;;;27.60;26.17;;;;;;;13.37;88.33;97495.81;5055243;28;20623;-74
2023/02/17 11:44:28;;;;;;;24.47;22.93;;;;;;;13.40;88.76;97500.63;5054355;28;20230;-75
2023/02/17 11:47:12;;;;;;;19.93;18.83;;;;;;;12.98;91.03;97502.44;5041078;28;20197;-74